Gretna, Canada
Current Conditions -  °F | °C
As of 2:15 PM on Thursday 18 Dec 2014 (Local Time) from K2C8 Reporting Station
Overcast Overcast  
Wind Chill:   Ceiling: 6000
Heat Index: 19°   Visibility: 8mi
Dew Point: 14°   Wind: 9mph
Humidity: 80%   Direction: 170°S
Pressure: 30.16"   Gusts: NA
Location:  49.01°N, 97.56°W
Report Text: K2C8 182015Z AUTO 17008KT 8SM OVC060 M07/M10 A3016 RMK AO2
Loading
Personal Weather Stations






























Interactive Weather Map New forecast layout! Learn more

10-Day Weather Forecast

Advertisements
Track Severe Weather on mobile